createdAt,value
2022-10-26T00:01:14.484Z,12.27
2022-10-26T00:03:43.550Z,13.63
2022-10-26T00:06:12.274Z,14.90
2022-10-26T00:08:39.856Z,15.63
2022-10-26T00:11:08.143Z,15.18
2022-10-26T00:13:36.615Z,13.60
2022-10-26T00:16:21.192Z,14.70
2022-10-26T00:18:48.837Z,14.63
2022-10-26T00:21:16.709Z,15.70
2022-10-26T00:23:44.033Z,16.45
2022-10-26T00:26:11.702Z,17.98
2022-10-26T00:28:39.818Z,17.42
2022-10-26T00:31:11.697Z,18.52
2022-10-26T00:33:39.060Z,16.95
2022-10-26T00:36:06.810Z,17.77
2022-10-26T00:38:34.158Z,17.33
2022-10-26T00:41:01.392Z,14.93
2022-10-26T00:43:28.705Z,12.30
2022-10-26T00:45:59.401Z,12.95
2022-10-26T00:48:30.811Z,11.90
2022-10-26T00:51:01.445Z,13.80
2022-10-26T00:53:30.326Z,12.00
2022-10-26T00:55:57.761Z,9.82
2022-10-26T00:58:26.413Z,9.27
2022-10-26T01:00:53.833Z,8.90
2022-10-26T01:03:22.534Z,9.02
2022-10-26T01:05:50.066Z,8.13
2022-10-26T01:11:01.083Z,7.60
2022-10-26T01:13:31.363Z,7.40
2022-10-26T01:16:08.783Z,7.10
2022-10-26T01:18:52.940Z,6.63
2022-10-26T01:22:00.709Z,6.68
2022-10-26T01:24:47.114Z,6.70
2022-10-26T01:27:29.750Z,6.97
2022-10-26T01:30:14.306Z,6.43
2022-10-26T01:32:53.830Z,6.18
2022-10-26T01:35:21.175Z,5.80
2022-10-26T01:37:59.113Z,6.38
2022-10-26T01:40:45.076Z,5.82
2022-10-26T01:43:15.615Z,6.15
2022-10-26T01:45:46.595Z,6.60
2022-10-26T01:48:18.349Z,7.00
2022-10-26T01:50:48.593Z,6.60
2022-10-26T01:53:17.191Z,6.40
2022-10-26T01:55:51.534Z,7.18
2022-10-26T01:59:19.791Z,6.63
2022-10-26T02:01:51.082Z,6.60
2022-10-26T02:04:38.190Z,6.78
2022-10-26T02:07:22.159Z,6.60
2022-10-26T02:10:08.850Z,6.63
2022-10-26T02:12:54.379Z,7.00
2022-10-26T02:15:23.827Z,6.20
2022-10-26T02:18:04.494Z,6.68
2022-10-26T02:20:36.477Z,6.35
2022-10-26T02:23:07.724Z,6.20
2022-10-26T02:25:42.512Z,6.80
2022-10-26T02:28:18.640Z,11.27
2022-10-26T02:30:47.929Z,12.15
2022-10-26T02:33:16.436Z,13.35
2022-10-26T02:35:49.550Z,13.32
2022-10-26T02:38:19.989Z,13.55
2022-10-26T02:40:52.626Z,14.02
2022-10-26T02:43:22.478Z,14.23
2022-10-26T02:45:54.318Z,13.15
2022-10-26T02:48:22.869Z,13.05
2022-10-26T02:51:01.851Z,11.55
2022-10-26T02:53:52.084Z,13.05
2022-10-26T02:56:25.698Z,12.43
2022-10-26T02:58:58.581Z,12.07
2022-10-26T03:01:28.006Z,12.05
2022-10-26T03:03:59.305Z,11.75
2022-10-26T03:06:27.139Z,11.43
2022-10-26T03:08:54.737Z,9.77
2022-10-26T03:11:21.992Z,8.35
2022-10-26T03:13:49.317Z,7.07
2022-10-26T03:16:16.659Z,6.97
2022-10-26T03:18:44.058Z,6.60
2022-10-26T03:21:11.403Z,6.43
2022-10-26T03:23:38.775Z,6.32
2022-10-26T03:26:06.260Z,6.15
2022-10-26T03:28:33.521Z,6.70
2022-10-26T03:31:00.976Z,6.70
2022-10-26T03:33:28.497Z,6.30
2022-10-26T03:35:57.177Z,6.30
2022-10-26T03:38:24.909Z,6.20
2022-10-26T03:40:52.584Z,6.50
2022-10-26T03:43:20.290Z,6.25
2022-10-26T03:45:47.520Z,5.53
2022-10-26T03:48:14.919Z,5.45
2022-10-26T03:50:42.345Z,5.80
2022-10-26T03:53:10.289Z,6.38
2022-10-26T03:55:37.934Z,5.78
2022-10-26T03:58:05.465Z,5.90
2022-10-26T04:00:32.793Z,5.85
2022-10-26T04:03:01.063Z,5.90
2022-10-26T04:05:29.897Z,6.22
2022-10-26T04:07:59.205Z,6.35
2022-10-26T04:10:28.291Z,6.40
2022-10-26T04:12:56.252Z,5.97
2022-10-26T04:15:24.152Z,6.50
2022-10-26T04:17:59.523Z,5.80
2022-10-26T04:20:28.343Z,6.05
2022-10-26T04:23:06.594Z,6.18
2022-10-26T04:25:34.589Z,5.85
2022-10-26T04:28:03.733Z,7.65
2022-10-26T04:30:32.483Z,6.43
2022-10-26T04:33:00.649Z,7.38
2022-10-26T04:35:28.876Z,6.85
2022-10-26T04:38:04.386Z,5.65
2022-10-26T04:43:00.207Z,7.85
2022-10-26T04:45:33.735Z,6.40
2022-10-26T04:48:10.306Z,11.23
2022-10-26T04:50:38.338Z,8.10
2022-10-26T04:53:07.282Z,6.57
2022-10-26T04:55:35.275Z,7.93
2022-10-26T04:58:03.001Z,6.22
2022-10-26T05:00:33.127Z,5.78
2022-10-26T05:03:06.470Z,7.00
2022-10-26T05:05:35.377Z,6.50
2022-10-26T05:08:02.617Z,6.32
2022-10-26T05:10:30.238Z,6.40
2022-10-26T05:12:59.521Z,6.53
2022-10-26T05:15:27.657Z,6.82
2022-10-26T05:17:58.769Z,7.30
2022-10-26T05:20:30.975Z,5.95
2022-10-26T05:22:59.678Z,6.07
2022-10-26T05:25:31.086Z,6.47
2022-10-26T05:28:02.833Z,6.57
2022-10-26T05:30:31.696Z,7.47
2022-10-26T05:33:03.491Z,8.48
2022-10-26T05:35:31.942Z,7.38
2022-10-26T05:38:00.197Z,6.55
2022-10-26T05:40:28.037Z,7.00
2022-10-26T05:43:01.789Z,6.60
2022-10-26T05:45:29.623Z,6.18
2022-10-26T05:47:59.967Z,6.03
2022-10-26T05:50:29.967Z,5.80
2022-10-26T05:52:57.430Z,6.22
2022-10-26T05:55:25.273Z,6.38
2022-10-26T05:57:53.846Z,5.70
2022-10-26T06:00:26.383Z,6.43
2022-10-26T06:03:18.655Z,5.82
2022-10-26T06:05:56.751Z,6.15
2022-10-26T06:08:27.184Z,6.10
2022-10-26T06:10:55.892Z,6.95
2022-10-26T06:13:23.643Z,10.35
2022-10-26T06:16:09.511Z,11.35
2022-10-26T06:18:58.249Z,12.18
2022-10-26T06:21:45.248Z,11.65
2022-10-26T06:24:30.745Z,12.82
2022-10-26T06:26:57.966Z,13.10
2022-10-26T06:29:50.341Z,11.57
2022-10-26T06:32:18.153Z,11.32
2022-10-26T06:34:48.298Z,10.55
2022-10-26T06:37:15.940Z,10.13
2022-10-26T06:39:49.990Z,11.02
2022-10-26T06:42:20.840Z,11.15
2022-10-26T06:44:48.788Z,10.77
2022-10-26T06:47:34.896Z,11.00
2022-10-26T06:52:58.542Z,10.23
2022-10-26T06:55:27.646Z,9.98
2022-10-26T06:57:55.348Z,11.05
2022-10-26T07:00:25.497Z,10.93
2022-10-26T07:02:53.442Z,11.48
2022-10-26T07:05:21.269Z,10.18
2022-10-26T07:07:49.112Z,10.70
2022-10-26T07:10:16.865Z,12.25
2022-10-26T07:12:44.240Z,12.70
2022-10-26T07:15:12.540Z,15.90
2022-10-26T07:17:49.582Z,14.48
2022-10-26T07:20:20.394Z,15.15
2022-10-26T07:22:57.782Z,15.50
2022-10-26T07:25:26.701Z,14.48
2022-10-26T07:27:59.169Z,13.60
2022-10-26T07:30:30.426Z,14.32
2022-10-26T07:33:06.029Z,15.25
2022-10-26T07:35:34.425Z,15.48
2022-10-26T07:38:02.664Z,14.73
2022-10-26T07:40:30.299Z,14.40
2022-10-26T07:42:59.587Z,20.67
2022-10-26T07:45:27.487Z,15.40
2022-10-26T07:47:54.765Z,13.80
2022-10-26T07:50:22.901Z,11.95
2022-10-26T07:52:50.884Z,13.55
2022-10-26T07:55:19.428Z,13.57
2022-10-26T07:57:49.674Z,14.55
2022-10-26T08:00:21.334Z,14.60
2022-10-26T08:02:48.852Z,14.57
2022-10-26T08:05:16.267Z,15.05
2022-10-26T08:07:46.927Z,19.00
2022-10-26T08:10:15.298Z,15.60
2022-10-26T08:12:44.309Z,20.75
2022-10-26T08:15:11.853Z,16.08
2022-10-26T08:17:39.195Z,17.30
2022-10-26T08:20:07.037Z,16.58
2022-10-26T08:22:34.427Z,17.70
2022-10-26T08:25:01.730Z,17.77
2022-10-26T08:27:29.125Z,17.48
2022-10-26T08:29:56.517Z,16.90
2022-10-26T08:32:23.969Z,16.27
2022-10-26T08:34:51.321Z,16.38
2022-10-26T08:37:18.768Z,15.65
2022-10-26T08:39:49.104Z,15.43
2022-10-26T08:42:32.073Z,15.52
2022-10-26T08:45:07.992Z,17.80
2022-10-26T08:47:45.330Z,16.15
2022-10-26T08:50:21.516Z,16.42
2022-10-26T08:53:08.795Z,15.98
2022-10-26T08:55:46.571Z,14.95
2022-10-26T08:58:22.262Z,16.35
2022-10-26T09:00:51.224Z,16.30
2022-10-26T09:03:19.581Z,14.63
2022-10-26T09:06:22.736Z,17.15
2022-10-26T09:09:18.200Z,16.08
2022-10-26T09:11:48.475Z,16.38
2022-10-26T09:14:40.802Z,15.95
2022-10-26T09:17:24.387Z,16.77
2022-10-26T09:20:09.993Z,16.85
2022-10-26T09:22:52.440Z,17.05
2022-10-26T09:25:24.643Z,15.73
2022-10-26T09:27:59.827Z,16.38
2022-10-26T09:30:27.550Z,17.05
2022-10-26T09:33:15.490Z,14.52
2022-10-26T09:36:01.456Z,15.02
2022-10-26T09:38:37.343Z,13.93
2022-10-26T09:41:19.606Z,13.50
2022-10-26T09:44:02.222Z,12.07
2022-10-26T09:46:34.162Z,13.45
2022-10-26T09:49:07.113Z,12.60
2022-10-26T09:51:39.532Z,12.48
2022-10-26T09:54:18.939Z,13.10
2022-10-26T09:56:52.063Z,13.38
2022-10-26T09:59:22.922Z,13.30
2022-10-26T10:01:50.465Z,13.25
2022-10-26T10:04:23.274Z,13.65
2022-10-26T10:07:03.773Z,15.15
2022-10-26T10:09:31.194Z,14.55
2022-10-26T10:12:02.789Z,14.07
2022-10-26T10:14:37.397Z,14.00
2022-10-26T10:17:21.842Z,14.35
2022-10-26T10:19:49.899Z,13.95
2022-10-26T10:22:19.762Z,13.10
2022-10-26T10:25:01.811Z,11.98
2022-10-26T10:27:31.203Z,12.70
2022-10-26T10:30:04.012Z,12.85
2022-10-26T10:32:35.869Z,12.93
2022-10-26T10:35:25.202Z,12.90
2022-10-26T10:37:53.146Z,12.20
2022-10-26T10:40:24.205Z,12.80
2022-10-26T10:42:55.998Z,12.00
2022-10-26T10:45:26.645Z,11.60
2022-10-26T10:48:06.332Z,12.00
2022-10-26T10:50:36.681Z,11.70
2022-10-26T10:53:19.748Z,11.48
2022-10-26T10:56:07.653Z,11.45
2022-10-26T10:58:57.891Z,10.55
2022-10-26T11:01:32.731Z,12.85
2022-10-26T11:04:35.692Z,12.00
2022-10-26T11:07:06.989Z,12.60
2022-10-26T11:09:39.732Z,11.48
2022-10-26T11:12:18.142Z,11.27
2022-10-26T11:14:55.094Z,12.25
2022-10-26T11:17:31.934Z,11.55
2022-10-26T11:20:17.286Z,11.27
2022-10-26T11:22:56.759Z,10.70
2022-10-26T11:25:33.812Z,10.23
2022-10-26T11:28:39.427Z,11.32
2022-10-26T11:31:16.477Z,10.90
2022-10-26T11:34:02.180Z,11.05
2022-10-26T11:36:32.085Z,10.43
2022-10-26T11:39:16.075Z,11.02
2022-10-26T11:41:53.453Z,10.82
2022-10-26T11:44:39.097Z,10.77
2022-10-26T11:50:17.116Z,10.65
2022-10-26T11:52:52.283Z,10.68
2022-10-26T11:55:22.803Z,10.43
2022-10-26T11:57:54.197Z,9.95
2022-10-26T12:00:23.214Z,9.13
2022-10-26T12:03:02.444Z,8.32
2022-10-26T12:05:32.505Z,9.07
2022-10-26T12:08:06.207Z,9.82
2022-10-26T12:10:36.300Z,9.35
2022-10-26T12:13:27.737Z,9.68
2022-10-26T12:16:04.565Z,8.90
2022-10-26T12:18:59.885Z,9.98
2022-10-26T12:21:32.141Z,9.13
2022-10-26T12:24:22.448Z,9.23
2022-10-26T12:27:01.470Z,9.07
2022-10-26T12:29:40.632Z,8.70
2022-10-26T12:32:32.725Z,8.18
2022-10-26T12:35:02.613Z,8.80
2022-10-26T12:37:37.316Z,9.00
2022-10-26T12:40:33.803Z,8.50
2022-10-26T12:43:16.430Z,8.88
2022-10-26T12:46:07.805Z,8.60
2022-10-26T12:48:48.343Z,8.55
2022-10-26T12:51:27.621Z,9.75
2022-10-26T12:54:42.087Z,8.85
2022-10-26T12:57:28.900Z,9.48
2022-10-26T13:00:06.489Z,9.70
2022-10-26T13:02:42.715Z,10.52
2022-10-26T13:05:34.470Z,11.05
2022-10-26T13:08:05.186Z,11.48
2022-10-26T13:10:33.732Z,10.93
2022-10-26T13:13:03.336Z,11.82
2022-10-26T13:15:39.951Z,11.48
2022-10-26T13:18:19.062Z,10.82
2022-10-26T13:21:09.117Z,11.77
2022-10-26T13:23:41.093Z,11.90
2022-10-26T13:26:17.560Z,12.05
2022-10-26T13:28:53.890Z,11.80
2022-10-26T13:31:33.147Z,11.82
2022-10-26T13:34:20.610Z,11.48
2022-10-26T13:36:59.990Z,10.93
2022-10-26T13:39:38.704Z,11.80
2022-10-26T13:42:08.116Z,11.27
2022-10-26T13:44:56.711Z,11.43
2022-10-26T13:47:48.976Z,11.50
2022-10-26T13:50:21.611Z,10.85
2022-10-26T13:52:54.673Z,9.90
2022-10-26T13:55:54.962Z,10.55
2022-10-26T13:58:43.448Z,11.27
2022-10-26T14:01:11.953Z,10.75
2022-10-26T14:03:40.217Z,9.98
2022-10-26T14:06:15.606Z,10.20
2022-10-26T14:08:44.732Z,9.75
2022-10-26T14:11:15.886Z,8.95
2022-10-26T14:13:43.501Z,8.95
2022-10-26T14:16:14.197Z,8.82
2022-10-26T14:18:45.241Z,9.30
2022-10-26T14:21:19.230Z,9.07
2022-10-26T14:23:50.661Z,8.93
2022-10-26T14:26:30.107Z,8.75
2022-10-26T14:29:04.535Z,9.43
2022-10-26T14:31:34.309Z,9.77
2022-10-26T14:34:04.601Z,9.32
2022-10-26T14:36:55.543Z,9.32
2022-10-26T14:39:36.005Z,9.00
2022-10-26T14:42:21.089Z,9.85
2022-10-26T14:44:48.410Z,9.13
2022-10-26T14:47:24.755Z,10.38
2022-10-26T14:49:52.709Z,9.32
2022-10-26T14:52:29.027Z,9.02
2022-10-26T14:55:15.506Z,10.15
2022-10-26T14:57:45.679Z,8.48
2022-10-26T15:00:24.557Z,8.82
2022-10-26T15:02:57.504Z,10.02
2022-10-26T15:05:24.715Z,9.60
2022-10-26T15:07:53.358Z,10.77
2022-10-26T15:10:39.218Z,9.85
2022-10-26T15:13:19.293Z,10.55
2022-10-26T15:15:49.888Z,11.13
2022-10-26T15:18:30.372Z,10.55
2022-10-26T15:20:58.750Z,11.30
2022-10-26T15:23:28.146Z,11.68
2022-10-26T15:26:01.847Z,12.27
2022-10-26T15:28:39.132Z,11.13
2022-10-26T15:31:12.436Z,13.77
2022-10-26T15:33:44.677Z,13.05
2022-10-26T15:36:17.747Z,13.63
2022-10-26T15:38:46.535Z,14.68
2022-10-26T15:41:18.442Z,14.93
2022-10-26T15:43:49.899Z,16.55
2022-10-26T15:46:17.640Z,15.77
2022-10-26T15:48:50.190Z,16.30
2022-10-26T15:51:19.577Z,18.33
2022-10-26T15:53:46.962Z,18.02
2022-10-26T15:56:17.474Z,19.35
2022-10-26T15:58:45.466Z,21.05
2022-10-26T16:01:24.349Z,20.15
2022-10-26T16:03:52.800Z,20.48
2022-10-26T16:06:28.549Z,19.77
2022-10-26T16:08:58.529Z,19.45
2022-10-26T16:11:25.815Z,18.92
2022-10-26T16:13:54.459Z,17.50
2022-10-26T16:16:23.499Z,16.70
2022-10-26T16:19:11.754Z,17.10
2022-10-26T16:21:42.982Z,17.17
2022-10-26T16:24:10.449Z,17.95
2022-10-26T16:26:37.915Z,18.95
2022-10-26T16:29:05.271Z,18.08
2022-10-26T16:31:32.628Z,25.38
2022-10-26T16:34:03.154Z,26.63
2022-10-26T16:36:34.872Z,26.42
2022-10-26T16:41:35.072Z,25.25
2022-10-26T16:44:02.441Z,23.88
2022-10-26T16:46:29.829Z,24.33
2022-10-26T16:48:57.271Z,23.58
2022-10-26T16:51:27.393Z,23.90
2022-10-26T16:53:56.326Z,25.73
2022-10-26T16:56:27.663Z,27.02
2022-10-26T16:58:58.298Z,26.40
2022-10-26T17:01:31.150Z,29.08
2022-10-26T17:04:01.238Z,28.02
2022-10-26T17:06:28.648Z,27.67
2022-10-26T17:08:56.105Z,27.45
2022-10-26T17:11:23.544Z,28.08
2022-10-26T17:13:55.244Z,29.30
2022-10-26T17:16:24.582Z,30.08
2022-10-26T17:18:54.029Z,29.58
2022-10-26T17:21:32.354Z,28.42
2022-10-26T17:23:59.914Z,28.35
2022-10-26T17:26:27.568Z,29.77
2022-10-26T17:28:58.965Z,31.00
2022-10-26T17:31:26.842Z,30.23
2022-10-26T17:33:54.679Z,30.02
2022-10-26T17:36:23.655Z,30.10
2022-10-26T17:38:53.739Z,29.92
2022-10-26T17:41:22.384Z,30.17
2022-10-26T17:43:50.562Z,29.05
2022-10-26T17:46:23.212Z,27.50
2022-10-26T17:48:58.723Z,28.58
2022-10-26T17:51:28.102Z,28.63
2022-10-26T17:53:56.223Z,25.30
2022-10-26T17:56:26.323Z,27.30
2022-10-26T17:58:55.241Z,26.27
2022-10-26T18:01:23.343Z,28.25
2022-10-26T18:03:51.175Z,29.65
2022-10-26T18:06:19.660Z,27.98
2022-10-26T18:08:48.506Z,34.33
2022-10-26T18:11:25.322Z,32.88
2022-10-26T18:13:58.047Z,33.80
2022-10-26T18:16:27.838Z,28.40
2022-10-26T18:19:00.870Z,29.33
2022-10-26T18:21:32.750Z,28.40
2022-10-26T18:24:00.525Z,30.25
2022-10-26T18:26:29.852Z,29.55
2022-10-26T18:28:59.139Z,30.05
2022-10-26T18:31:28.347Z,31.55
2022-10-26T18:34:00.803Z,30.63
2022-10-26T18:36:29.445Z,30.00
2022-10-26T18:38:57.410Z,31.08
2022-10-26T18:41:26.312Z,31.35
2022-10-26T18:43:55.434Z,29.20
2022-10-26T18:46:28.574Z,28.60
2022-10-26T18:48:57.327Z,30.77
2022-10-26T18:51:29.212Z,29.77
2022-10-26T18:53:57.630Z,33.13
2022-10-26T18:56:25.936Z,28.52
2022-10-26T18:58:58.674Z,30.60
2022-10-26T19:01:29.270Z,31.52
2022-10-26T19:04:05.096Z,35.20
2022-10-26T19:06:33.813Z,37.53
2022-10-26T19:09:01.818Z,33.67
2022-10-26T19:11:31.507Z,36.38
2022-10-26T19:13:59.493Z,44.97
2022-10-26T19:16:45.480Z,40.05
2022-10-26T19:19:15.384Z,33.50
2022-10-26T19:21:42.900Z,32.97
2022-10-26T19:24:19.501Z,32.70
2022-10-26T19:26:47.697Z,32.13
2022-10-26T19:29:16.875Z,31.92
2022-10-26T19:31:46.367Z,32.75
2022-10-26T19:34:15.020Z,34.70
2022-10-26T19:36:45.391Z,32.50
2022-10-26T19:39:17.880Z,31.15
2022-10-26T19:41:46.509Z,31.58
2022-10-26T19:44:14.971Z,34.83
2022-10-26T19:46:43.841Z,30.83
2022-10-26T19:49:13.175Z,30.25
2022-10-26T19:51:41.018Z,30.80
2022-10-26T19:54:08.949Z,30.10
2022-10-26T19:56:38.065Z,30.50
2022-10-26T19:59:06.650Z,29.38
2022-10-26T20:01:34.435Z,29.73
2022-10-26T20:04:06.191Z,26.10
2022-10-26T20:06:33.855Z,25.60
2022-10-26T20:09:04.425Z,25.83
2022-10-26T20:11:36.810Z,25.83
2022-10-26T20:14:05.858Z,25.35
2022-10-26T20:16:33.295Z,26.63
2022-10-26T20:19:01.993Z,26.42
2022-10-26T20:21:30.142Z,25.77
2022-10-26T20:23:57.698Z,26.50
2022-10-26T20:26:28.288Z,25.83
2022-10-26T20:28:56.110Z,25.63
2022-10-26T20:31:23.822Z,26.88
2022-10-26T20:33:54.312Z,27.63
2022-10-26T20:36:22.540Z,28.88
2022-10-26T20:38:50.413Z,29.23
2022-10-26T20:41:18.270Z,27.40
2022-10-26T20:43:45.822Z,28.55
2022-10-26T20:46:23.184Z,25.05
2022-10-26T20:48:51.608Z,25.13
2022-10-26T20:52:26.261Z,24.30
2022-10-26T20:55:06.491Z,23.38
2022-10-26T20:57:36.073Z,23.52
2022-10-26T21:00:09.231Z,23.42
2022-10-26T21:02:36.977Z,21.90
2022-10-26T21:05:04.675Z,19.65
2022-10-26T21:07:32.049Z,19.88
2022-10-26T21:09:59.398Z,18.58
2022-10-26T21:12:26.623Z,21.30
2022-10-26T21:14:54.125Z,19.45
2022-10-26T21:17:21.481Z,19.27
2022-10-26T21:19:48.798Z,19.33
2022-10-26T21:22:16.217Z,19.13
2022-10-26T21:24:43.520Z,19.33
2022-10-26T21:27:10.894Z,20.10
2022-10-26T21:29:38.221Z,19.58
2022-10-26T21:32:05.929Z,20.00
2022-10-26T21:34:33.537Z,20.15
2022-10-26T21:37:00.946Z,18.67
2022-10-26T21:39:28.178Z,19.00
2022-10-26T21:41:55.695Z,19.10
2022-10-26T21:44:38.816Z,18.67
2022-10-26T21:47:08.285Z,18.90
2022-10-26T21:49:36.756Z,20.02
2022-10-26T21:52:04.477Z,21.60
2022-10-26T21:54:31.825Z,22.40
2022-10-26T21:56:59.208Z,21.10
2022-10-26T21:59:26.664Z,21.73
2022-10-26T22:01:54.150Z,20.88
2022-10-26T22:04:21.572Z,20.63
2022-10-26T22:06:50.028Z,21.17
2022-10-26T22:09:17.745Z,19.83
2022-10-26T22:11:45.106Z,21.77
2022-10-26T22:14:15.692Z,20.30
2022-10-26T22:16:43.020Z,20.27
2022-10-26T22:19:10.792Z,21.05
2022-10-26T22:21:41.500Z,20.83
2022-10-26T22:24:09.452Z,21.48
2022-10-26T22:26:37.913Z,21.23
2022-10-26T22:29:05.905Z,22.20
2022-10-26T22:31:37.340Z,23.83
2022-10-26T22:34:08.238Z,24.50
2022-10-26T22:36:36.075Z,25.50
2022-10-26T22:39:03.822Z,25.92
2022-10-26T22:41:31.162Z,24.95
2022-10-26T22:43:58.473Z,23.52
2022-10-26T22:46:27.950Z,21.65
2022-10-26T22:48:57.024Z,22.15
2022-10-26T22:51:27.270Z,22.17
2022-10-26T22:53:56.738Z,20.58
2022-10-26T22:58:58.029Z,19.88
2022-10-26T23:01:34.085Z,21.05
2022-10-26T23:04:01.513Z,20.20
2022-10-26T23:06:31.211Z,19.25
2022-10-26T23:08:58.878Z,18.63
2022-10-26T23:11:28.329Z,19.08
2022-10-26T23:14:00.265Z,18.25
2022-10-26T23:16:28.911Z,18.13
2022-10-26T23:18:56.598Z,18.58
2022-10-26T23:23:57.753Z,18.17
2022-10-26T23:26:25.749Z,17.55
2022-10-26T23:28:53.139Z,17.15
2022-10-26T23:31:25.905Z,17.15
2022-10-26T23:33:55.699Z,16.55
2022-10-26T23:36:23.961Z,16.20
2022-10-26T23:38:51.325Z,15.50
2022-10-26T23:41:18.748Z,16.27
2022-10-26T23:43:46.001Z,14.98
2022-10-26T23:46:13.500Z,16.55
2022-10-26T23:48:40.949Z,15.07
2022-10-26T23:51:08.467Z,15.60
2022-10-26T23:53:36.119Z,15.65
2022-10-26T23:56:03.699Z,15.55
2022-10-26T23:58:30.990Z,14.38
